sensor_id;sensor_type;location;lat;lon;timestamp;temperature;humidity
774;DHT22;370;48.810;9.150;2023-06-04T00:02:11;13.90;7.70
774;DHT22;370;48.810;9.150;2023-06-04T00:04:38;13.90;7.70
774;DHT22;370;48.810;9.150;2023-06-04T00:07:05;13.90;5.90
774;DHT22;370;48.810;9.150;2023-06-04T00:09:31;14.00;5.00
774;DHT22;370;48.810;9.150;2023-06-04T00:11:58;14.00;5.50
774;DHT22;370;48.810;9.150;2023-06-04T00:14:26;14.00;5.40
774;DHT22;370;48.810;9.150;2023-06-04T00:16:53;13.90;5.60
774;DHT22;370;48.810;9.150;2023-06-04T00:19:20;13.90;6.60
774;DHT22;370;48.810;9.150;2023-06-04T00:21:46;13.80;6.90
774;DHT22;370;48.810;9.150;2023-06-04T00:24:13;13.80;7.20
774;DHT22;370;48.810;9.150;2023-06-04T00:26:40;13.70;7.50
774;DHT22;370;48.810;9.150;2023-06-04T00:29:07;13.70;7.50
774;DHT22;370;48.810;9.150;2023-06-04T00:31:35;13.60;7.90
774;DHT22;370;48.810;9.150;2023-06-04T00:34:03;13.60;8.40
774;DHT22;370;48.810;9.150;2023-06-04T00:36:30;13.60;7.50
774;DHT22;370;48.810;9.150;2023-06-04T00:38:57;13.50;9.20
774;DHT22;370;48.810;9.150;2023-06-04T00:41:24;13.40;10.30
774;DHT22;370;48.810;9.150;2023-06-04T00:43:50;13.40;9.70
774;DHT22;370;48.810;9.150;2023-06-04T00:46:21;13.30;11.00
774;DHT22;370;48.810;9.150;2023-06-04T00:48:49;13.30;11.30
774;DHT22;370;48.810;9.150;2023-06-04T00:51:16;13.20;12.10
774;DHT22;370;48.810;9.150;2023-06-04T00:53:43;13.10;12.20
774;DHT22;370;48.810;9.150;2023-06-04T00:56:10;13.20;9.80
774;DHT22;370;48.810;9.150;2023-06-04T00:58:38;13.10;11.20
774;DHT22;370;48.810;9.150;2023-06-04T01:01:09;13.10;10.10
774;DHT22;370;48.810;9.150;2023-06-04T01:03:38;13.10;11.00
774;DHT22;370;48.810;9.150;2023-06-04T01:06:14;13.10;12.00
774;DHT22;370;48.810;9.150;2023-06-04T01:08:46;13.00;13.30
774;DHT22;370;48.810;9.150;2023-06-04T01:11:14;12.90;13.60
774;DHT22;370;48.810;9.150;2023-06-04T01:13:41;12.80;15.20
774;DHT22;370;48.810;9.150;2023-06-04T01:16:10;12.80;14.90
774;DHT22;370;48.810;9.150;2023-06-04T01:18:39;12.80;15.20
774;DHT22;370;48.810;9.150;2023-06-04T01:21:08;12.80;15.70
774;DHT22;370;48.810;9.150;2023-06-04T01:23:40;12.70;15.60
774;DHT22;370;48.810;9.150;2023-06-04T01:26:11;12.70;15.60
774;DHT22;370;48.810;9.150;2023-06-04T01:28:39;12.60;15.60
774;DHT22;370;48.810;9.150;2023-06-04T01:31:06;12.60;16.70
774;DHT22;370;48.810;9.150;2023-06-04T01:33:34;12.50;17.30
774;DHT22;370;48.810;9.150;2023-06-04T01:36:00;12.50;17.30
774;DHT22;370;48.810;9.150;2023-06-04T01:38:27;12.40;17.10
774;DHT22;370;48.810;9.150;2023-06-04T01:40:56;12.40;17.20
774;DHT22;370;48.810;9.150;2023-06-04T01:43:27;12.40;17.30
774;DHT22;370;48.810;9.150;2023-06-04T01:45:54;12.40;16.70
774;DHT22;370;48.810;9.150;2023-06-04T01:48:22;12.30;18.30
774;DHT22;370;48.810;9.150;2023-06-04T01:50:49;12.30;19.40
774;DHT22;370;48.810;9.150;2023-06-04T01:53:15;12.30;19.10
774;DHT22;370;48.810;9.150;2023-06-04T01:55:42;12.20;19.30
774;DHT22;370;48.810;9.150;2023-06-04T01:58:11;12.20;20.80
774;DHT22;370;48.810;9.150;2023-06-04T02:00:38;12.20;20.40
774;DHT22;370;48.810;9.150;2023-06-04T02:03:05;12.20;19.60
774;DHT22;370;48.810;9.150;2023-06-04T02:05:34;12.20;18.60
774;DHT22;370;48.810;9.150;2023-06-04T02:08:01;12.20;18.20
774;DHT22;370;48.810;9.150;2023-06-04T02:10:30;12.30;17.00
774;DHT22;370;48.810;9.150;2023-06-04T02:12:58;12.30;16.30
774;DHT22;370;48.810;9.150;2023-06-04T02:15:27;12.20;16.80
774;DHT22;370;48.810;9.150;2023-06-04T02:17:56;12.20;18.10
774;DHT22;370;48.810;9.150;2023-06-04T02:20:24;12.10;19.70
774;DHT22;370;48.810;9.150;2023-06-04T02:22:51;12.00;20.00
774;DHT22;370;48.810;9.150;2023-06-04T02:25:18;12.00;19.60
774;DHT22;370;48.810;9.150;2023-06-04T02:27:44;12.00;20.70
774;DHT22;370;48.810;9.150;2023-06-04T02:30:11;11.90;20.10
774;DHT22;370;48.810;9.150;2023-06-04T02:32:39;11.90;19.30
774;DHT22;370;48.810;9.150;2023-06-04T02:35:06;11.80;19.60
774;DHT22;370;48.810;9.150;2023-06-04T02:37:33;11.90;18.90
774;DHT22;370;48.810;9.150;2023-06-04T02:40:00;11.90;18.90
774;DHT22;370;48.810;9.150;2023-06-04T02:42:26;11.80;19.30
774;DHT22;370;48.810;9.150;2023-06-04T02:44:53;11.80;19.50
774;DHT22;370;48.810;9.150;2023-06-04T02:47:20;11.70;20.30
774;DHT22;370;48.810;9.150;2023-06-04T02:49:48;11.70;20.30
774;DHT22;370;48.810;9.150;2023-06-04T02:52:14;11.70;20.30
774;DHT22;370;48.810;9.150;2023-06-04T02:54:41;11.60;20.10
774;DHT22;370;48.810;9.150;2023-06-04T02:57:08;11.70;19.10
774;DHT22;370;48.810;9.150;2023-06-04T02:59:35;11.80;16.50
774;DHT22;370;48.810;9.150;2023-06-04T03:02:01;11.80;15.30
774;DHT22;370;48.810;9.150;2023-06-04T03:04:28;11.80;15.00
774;DHT22;370;48.810;9.150;2023-06-04T03:07:01;11.80;15.00
774;DHT22;370;48.810;9.150;2023-06-04T03:09:28;11.70;17.40
774;DHT22;370;48.810;9.150;2023-06-04T03:11:56;11.60;18.90
774;DHT22;370;48.810;9.150;2023-06-04T03:14:23;11.50;18.50
774;DHT22;370;48.810;9.150;2023-06-04T03:16:58;11.50;18.70
774;DHT22;370;48.810;9.150;2023-06-04T03:19:33;11.50;17.30
774;DHT22;370;48.810;9.150;2023-06-04T03:22:01;11.50;16.70
774;DHT22;370;48.810;9.150;2023-06-04T03:24:33;11.50;18.70
774;DHT22;370;48.810;9.150;2023-06-04T03:27:00;11.40;21.50
774;DHT22;370;48.810;9.150;2023-06-04T03:29:27;11.50;20.60
774;DHT22;370;48.810;9.150;2023-06-04T03:31:53;11.70;17.90
774;DHT22;370;48.810;9.150;2023-06-04T03:34:20;11.80;16.50
774;DHT22;370;48.810;9.150;2023-06-04T03:36:50;11.80;16.40
774;DHT22;370;48.810;9.150;2023-06-04T03:39:18;11.90;15.60
774;DHT22;370;48.810;9.150;2023-06-04T03:41:45;11.90;16.40
774;DHT22;370;48.810;9.150;2023-06-04T03:44:12;11.80;16.20
774;DHT22;370;48.810;9.150;2023-06-04T03:46:40;12.00;15.20
774;DHT22;370;48.810;9.150;2023-06-04T03:49:07;12.00;15.10
774;DHT22;370;48.810;9.150;2023-06-04T03:51:33;12.00;15.10
774;DHT22;370;48.810;9.150;2023-06-04T03:54:00;12.00;15.10
774;DHT22;370;48.810;9.150;2023-06-04T03:56:28;12.10;14.00
774;DHT22;370;48.810;9.150;2023-06-04T03:58:56;12.10;13.40
774;DHT22;370;48.810;9.150;2023-06-04T04:01:23;12.20;13.00
774;DHT22;370;48.810;9.150;2023-06-04T04:03:52;12.20;12.70
774;DHT22;370;48.810;9.150;2023-06-04T04:06:20;12.20;13.40
774;DHT22;370;48.810;9.150;2023-06-04T04:08:47;12.20;13.10
774;DHT22;370;48.810;9.150;2023-06-04T04:11:14;12.30;13.10
774;DHT22;370;48.810;9.150;2023-06-04T04:13:45;12.30;13.30
774;DHT22;370;48.810;9.150;2023-06-04T04:16:12;12.40;12.70
774;DHT22;370;48.810;9.150;2023-06-04T04:18:40;12.50;12.60
774;DHT22;370;48.810;9.150;2023-06-04T04:21:07;12.60;12.00
774;DHT22;370;48.810;9.150;2023-06-04T04:23:34;12.70;10.40
774;DHT22;370;48.810;9.150;2023-06-04T04:26:01;12.70;10.40
774;DHT22;370;48.810;9.150;2023-06-04T04:28:27;12.70;10.50
774;DHT22;370;48.810;9.150;2023-06-04T04:30:56;12.80;10.20
774;DHT22;370;48.810;9.150;2023-06-04T04:33:25;12.80;9.60
774;DHT22;370;48.810;9.150;2023-06-04T04:35:52;12.90;9.60
774;DHT22;370;48.810;9.150;2023-06-04T04:38:19;13.00;9.00
774;DHT22;370;48.810;9.150;2023-06-04T04:40:49;13.10;8.70
774;DHT22;370;48.810;9.150;2023-06-04T04:43:19;13.20;7.40
774;DHT22;370;48.810;9.150;2023-06-04T04:45:54;13.30;7.30
774;DHT22;370;48.810;9.150;2023-06-04T04:48:23;13.40;5.90
774;DHT22;370;48.810;9.150;2023-06-04T04:50:50;13.50;5.80
774;DHT22;370;48.810;9.150;2023-06-04T04:53:17;13.60;4.50
774;DHT22;370;48.810;9.150;2023-06-04T04:55:43;13.80;3.90
774;DHT22;370;48.810;9.150;2023-06-04T04:58:10;13.90;3.20
774;DHT22;370;48.810;9.150;2023-06-04T05:00:37;14.10;1.90
774;DHT22;370;48.810;9.150;2023-06-04T05:03:04;14.20;1.10
774;DHT22;370;48.810;9.150;2023-06-04T05:05:32;14.30;1.00
774;DHT22;370;48.810;9.150;2023-06-04T05:07:59;14.40;1.00
774;DHT22;370;48.810;9.150;2023-06-04T05:10:26;14.60;1.00
774;DHT22;370;48.810;9.150;2023-06-04T05:12:53;14.70;1.00
774;DHT22;370;48.810;9.150;2023-06-04T05:15:20;14.70;1.00
774;DHT22;370;48.810;9.150;2023-06-04T05:17:48;14.70;1.00
774;DHT22;370;48.810;9.150;2023-06-04T05:20:14;14.80;1.00
774;DHT22;370;48.810;9.150;2023-06-04T05:22:43;14.90;1.00
774;DHT22;370;48.810;9.150;2023-06-04T05:25:11;15.10;1.00
774;DHT22;370;48.810;9.150;2023-06-04T05:27:39;15.20;1.00
774;DHT22;370;48.810;9.150;2023-06-04T05:30:07;15.30;1.00
774;DHT22;370;48.810;9.150;2023-06-04T05:32:33;15.30;1.00
774;DHT22;370;48.810;9.150;2023-06-04T05:35:02;15.40;1.00
774;DHT22;370;48.810;9.150;2023-06-04T05:37:30;15.40;1.00
774;DHT22;370;48.810;9.150;2023-06-04T05:40:01;15.40;1.00
774;DHT22;370;48.810;9.150;2023-06-04T05:42:28;15.50;1.00
774;DHT22;370;48.810;9.150;2023-06-04T05:44:55;15.70;1.00
774;DHT22;370;48.810;9.150;2023-06-04T05:47:22;15.90;1.00
774;DHT22;370;48.810;9.150;2023-06-04T05:49:48;15.90;1.00
774;DHT22;370;48.810;9.150;2023-06-04T05:52:15;15.90;1.00
774;DHT22;370;48.810;9.150;2023-06-04T05:54:42;16.10;1.00
774;DHT22;370;48.810;9.150;2023-06-04T05:57:10;16.30;1.00
774;DHT22;370;48.810;9.150;2023-06-04T05:59:37;16.30;1.00
774;DHT22;370;48.810;9.150;2023-06-04T06:02:03;16.30;1.00
774;DHT22;370;48.810;9.150;2023-06-04T06:04:31;16.50;1.00
774;DHT22;370;48.810;9.150;2023-06-04T06:06:58;16.80;1.00
774;DHT22;370;48.810;9.150;2023-06-04T06:09:24;17.10;1.00
774;DHT22;370;48.810;9.150;2023-06-04T06:11:51;17.40;1.00
774;DHT22;370;48.810;9.150;2023-06-04T06:14:19;17.60;1.00
774;DHT22;370;48.810;9.150;2023-06-04T06:16:48;17.80;1.00
774;DHT22;370;48.810;9.150;2023-06-04T06:19:15;18.00;1.00
774;DHT22;370;48.810;9.150;2023-06-04T06:21:42;18.30;1.00
774;DHT22;370;48.810;9.150;2023-06-04T06:24:09;18.60;1.00
774;DHT22;370;48.810;9.150;2023-06-04T06:26:36;18.60;1.00
774;DHT22;370;48.810;9.150;2023-06-04T06:29:02;18.60;1.00
774;DHT22;370;48.810;9.150;2023-06-04T06:31:30;18.90;1.00
774;DHT22;370;48.810;9.150;2023-06-04T06:33:57;19.20;1.00
774;DHT22;370;48.810;9.150;2023-06-04T06:36:24;19.40;1.00
774;DHT22;370;48.810;9.150;2023-06-04T06:38:51;19.60;1.00
774;DHT22;370;48.810;9.150;2023-06-04T06:41:18;19.60;1.00
774;DHT22;370;48.810;9.150;2023-06-04T06:43:46;19.40;1.00
774;DHT22;370;48.810;9.150;2023-06-04T06:46:13;19.20;1.00
774;DHT22;370;48.810;9.150;2023-06-04T06:48:41;19.20;1.00
774;DHT22;370;48.810;9.150;2023-06-04T06:51:10;19.40;1.00
774;DHT22;370;48.810;9.150;2023-06-04T06:53:37;19.30;1.00
774;DHT22;370;48.810;9.150;2023-06-04T06:56:05;19.20;1.00
774;DHT22;370;48.810;9.150;2023-06-04T06:58:32;19.10;1.00
774;DHT22;370;48.810;9.150;2023-06-04T07:00:59;19.10;1.00
774;DHT22;370;48.810;9.150;2023-06-04T07:03:26;19.00;1.00
774;DHT22;370;48.810;9.150;2023-06-04T07:05:54;19.50;1.00
774;DHT22;370;48.810;9.150;2023-06-04T07:08:21;19.50;1.00
774;DHT22;370;48.810;9.150;2023-06-04T07:10:47;19.70;1.00
774;DHT22;370;48.810;9.150;2023-06-04T07:13:14;20.50;1.00
774;DHT22;370;48.810;9.150;2023-06-04T07:15:41;21.70;1.00
774;DHT22;370;48.810;9.150;2023-06-04T07:18:08;22.50;1.00
774;DHT22;370;48.810;9.150;2023-06-04T07:20:35;22.60;1.00
774;DHT22;370;48.810;9.150;2023-06-04T07:23:03;23.20;1.00
774;DHT22;370;48.810;9.150;2023-06-04T07:25:30;23.20;1.00
774;DHT22;370;48.810;9.150;2023-06-04T07:27:56;22.60;1.00
774;DHT22;370;48.810;9.150;2023-06-04T07:30:23;22.90;1.00
774;DHT22;370;48.810;9.150;2023-06-04T07:32:50;23.30;1.00
774;DHT22;370;48.810;9.150;2023-06-04T07:35:17;23.60;1.00
774;DHT22;370;48.810;9.150;2023-06-04T07:37:44;24.30;1.00
774;DHT22;370;48.810;9.150;2023-06-04T07:40:14;25.60;1.00
774;DHT22;370;48.810;9.150;2023-06-04T07:42:42;26.80;1.00
774;DHT22;370;48.810;9.150;2023-06-04T07:45:09;27.70;1.00
774;DHT22;370;48.810;9.150;2023-06-04T07:47:36;28.60;1.00
774;DHT22;370;48.810;9.150;2023-06-04T07:50:03;29.20;1.00
774;DHT22;370;48.810;9.150;2023-06-04T07:52:30;29.60;1.00
774;DHT22;370;48.810;9.150;2023-06-04T07:54:57;30.20;1.00
774;DHT22;370;48.810;9.150;2023-06-04T07:57:25;30.40;1.00
774;DHT22;370;48.810;9.150;2023-06-04T07:59:52;30.60;1.00
774;DHT22;370;48.810;9.150;2023-06-04T08:02:19;31.20;1.00
774;DHT22;370;48.810;9.150;2023-06-04T08:04:45;31.60;1.00
774;DHT22;370;48.810;9.150;2023-06-04T08:07:12;31.90;1.00
774;DHT22;370;48.810;9.150;2023-06-04T08:09:39;32.60;1.00
774;DHT22;370;48.810;9.150;2023-06-04T08:12:06;32.80;1.00
774;DHT22;370;48.810;9.150;2023-06-04T08:14:34;33.00;1.00
774;DHT22;370;48.810;9.150;2023-06-04T08:17:01;33.30;1.00
774;DHT22;370;48.810;9.150;2023-06-04T08:19:28;33.00;1.00
774;DHT22;370;48.810;9.150;2023-06-04T08:21:55;31.10;1.00
774;DHT22;370;48.810;9.150;2023-06-04T08:24:22;31.80;1.00
774;DHT22;370;48.810;9.150;2023-06-04T08:26:48;32.40;1.00
774;DHT22;370;48.810;9.150;2023-06-04T08:29:16;33.20;1.00
774;DHT22;370;48.810;9.150;2023-06-04T08:31:44;32.90;1.00
774;DHT22;370;48.810;9.150;2023-06-04T08:34:11;33.00;1.00
774;DHT22;370;48.810;9.150;2023-06-04T08:36:37;33.50;1.00
774;DHT22;370;48.810;9.150;2023-06-04T08:39:04;34.10;1.00
774;DHT22;370;48.810;9.150;2023-06-04T08:41:36;34.90;1.00
774;DHT22;370;48.810;9.150;2023-06-04T08:44:05;35.50;1.00
774;DHT22;370;48.810;9.150;2023-06-04T08:46:32;35.80;1.00
774;DHT22;370;48.810;9.150;2023-06-04T08:49:01;35.60;1.00
774;DHT22;370;48.810;9.150;2023-06-04T08:51:29;36.40;1.00
774;DHT22;370;48.810;9.150;2023-06-04T08:53:59;35.60;1.00
774;DHT22;370;48.810;9.150;2023-06-04T08:56:26;36.40;1.00
774;DHT22;370;48.810;9.150;2023-06-04T08:58:56;36.90;1.00
774;DHT22;370;48.810;9.150;2023-06-04T09:01:26;37.30;1.00
774;DHT22;370;48.810;9.150;2023-06-04T09:03:53;37.10;1.00
774;DHT22;370;48.810;9.150;2023-06-04T09:06:23;36.60;1.00
774;DHT22;370;48.810;9.150;2023-06-04T09:08:51;38.00;1.00
774;DHT22;370;48.810;9.150;2023-06-04T09:11:19;38.30;1.00
774;DHT22;370;48.810;9.150;2023-06-04T09:13:47;38.90;1.00
774;DHT22;370;48.810;9.150;2023-06-04T09:16:14;39.00;1.00
774;DHT22;370;48.810;9.150;2023-06-04T09:18:40;39.00;1.00
774;DHT22;370;48.810;9.150;2023-06-04T09:21:08;38.60;1.00
774;DHT22;370;48.810;9.150;2023-06-04T09:23:37;38.20;1.00
774;DHT22;370;48.810;9.150;2023-06-04T09:26:10;38.70;1.00
774;DHT22;370;48.810;9.150;2023-06-04T09:28:39;39.00;1.00
774;DHT22;370;48.810;9.150;2023-06-04T09:31:08;38.90;1.00
774;DHT22;370;48.810;9.150;2023-06-04T09:33:42;38.80;1.00
774;DHT22;370;48.810;9.150;2023-06-04T09:36:09;38.90;1.00
774;DHT22;370;48.810;9.150;2023-06-04T09:38:37;39.70;1.00
774;DHT22;370;48.810;9.150;2023-06-04T09:41:04;40.60;1.00
774;DHT22;370;48.810;9.150;2023-06-04T09:43:32;41.20;1.00
774;DHT22;370;48.810;9.150;2023-06-04T09:46:09;41.40;1.00
774;DHT22;370;48.810;9.150;2023-06-04T09:48:36;41.40;1.00
774;DHT22;370;48.810;9.150;2023-06-04T09:51:07;41.30;1.00
774;DHT22;370;48.810;9.150;2023-06-04T09:53:33;41.60;1.00
774;DHT22;370;48.810;9.150;2023-06-04T09:56:03;42.00;1.00
774;DHT22;370;48.810;9.150;2023-06-04T09:58:30;42.70;1.00
774;DHT22;370;48.810;9.150;2023-06-04T10:00:58;42.60;1.00
774;DHT22;370;48.810;9.150;2023-06-04T10:03:26;42.60;1.00
774;DHT22;370;48.810;9.150;2023-06-04T10:05:57;42.00;1.00
774;DHT22;370;48.810;9.150;2023-06-04T10:08:26;42.20;1.00
774;DHT22;370;48.810;9.150;2023-06-04T10:10:55;41.90;1.00
774;DHT22;370;48.810;9.150;2023-06-04T10:13:27;42.40;1.00
774;DHT22;370;48.810;9.150;2023-06-04T10:15:54;42.70;1.00
774;DHT22;370;48.810;9.150;2023-06-04T10:18:23;42.80;1.00
774;DHT22;370;48.810;9.150;2023-06-04T10:20:52;43.00;1.00
774;DHT22;370;48.810;9.150;2023-06-04T10:23:19;43.20;1.00
774;DHT22;370;48.810;9.150;2023-06-04T10:25:48;43.20;1.00
774;DHT22;370;48.810;9.150;2023-06-04T10:28:15;43.20;1.00
774;DHT22;370;48.810;9.150;2023-06-04T10:30:46;42.90;1.00
774;DHT22;370;48.810;9.150;2023-06-04T10:33:13;42.70;1.00
774;DHT22;370;48.810;9.150;2023-06-04T10:35:41;42.60;1.00
774;DHT22;370;48.810;9.150;2023-06-04T10:38:09;43.60;1.00
774;DHT22;370;48.810;9.150;2023-06-04T10:40:37;44.60;1.00
774;DHT22;370;48.810;9.150;2023-06-04T10:43:08;45.40;1.00
774;DHT22;370;48.810;9.150;2023-06-04T10:45:35;45.60;1.00
774;DHT22;370;48.810;9.150;2023-06-04T10:48:05;44.80;1.00
774;DHT22;370;48.810;9.150;2023-06-04T10:50:33;44.20;1.00
774;DHT22;370;48.810;9.150;2023-06-04T10:53:00;44.70;1.00
774;DHT22;370;48.810;9.150;2023-06-04T10:55:29;44.80;1.00
774;DHT22;370;48.810;9.150;2023-06-04T10:57:57;44.50;1.00
774;DHT22;370;48.810;9.150;2023-06-04T11:00:35;44.20;1.00
774;DHT22;370;48.810;9.150;2023-06-04T11:03:02;43.30;1.00
774;DHT22;370;48.810;9.150;2023-06-04T11:05:35;42.90;1.00
774;DHT22;370;48.810;9.150;2023-06-04T11:08:02;42.90;1.00
774;DHT22;370;48.810;9.150;2023-06-04T11:10:32;42.60;1.00
774;DHT22;370;48.810;9.150;2023-06-04T11:13:00;43.10;1.00
774;DHT22;370;48.810;9.150;2023-06-04T11:15:26;43.00;1.00
774;DHT22;370;48.810;9.150;2023-06-04T11:17:54;44.50;1.00
774;DHT22;370;48.810;9.150;2023-06-04T11:20:22;45.80;1.00
774;DHT22;370;48.810;9.150;2023-06-04T11:22:54;45.20;1.00
774;DHT22;370;48.810;9.150;2023-06-04T11:25:59;44.60;1.00
774;DHT22;370;48.810;9.150;2023-06-04T11:28:25;45.00;1.00
774;DHT22;370;48.810;9.150;2023-06-04T11:30:56;46.30;1.00
774;DHT22;370;48.810;9.150;2023-06-04T11:33:23;46.90;1.00
774;DHT22;370;48.810;9.150;2023-06-04T11:35:50;47.10;1.00
774;DHT22;370;48.810;9.150;2023-06-04T11:38:18;47.60;1.00
774;DHT22;370;48.810;9.150;2023-06-04T11:40:55;47.90;1.00
774;DHT22;370;48.810;9.150;2023-06-04T11:43:22;47.00;1.00
774;DHT22;370;48.810;9.150;2023-06-04T11:45:50;48.50;1.00
774;DHT22;370;48.810;9.150;2023-06-04T11:48:16;49.60;1.00
774;DHT22;370;48.810;9.150;2023-06-04T11:50:43;50.00;1.00
774;DHT22;370;48.810;9.150;2023-06-04T11:53:10;50.70;1.00
774;DHT22;370;48.810;9.150;2023-06-04T11:55:39;51.60;1.00
774;DHT22;370;48.810;9.150;2023-06-04T11:58:06;52.40;1.00
774;DHT22;370;48.810;9.150;2023-06-04T12:00:33;51.90;1.00
774;DHT22;370;48.810;9.150;2023-06-04T12:03:00;51.00;1.00
774;DHT22;370;48.810;9.150;2023-06-04T12:05:29;49.50;1.00
774;DHT22;370;48.810;9.150;2023-06-04T12:08:04;48.80;1.00
774;DHT22;370;48.810;9.150;2023-06-04T12:10:36;49.70;1.00
774;DHT22;370;48.810;9.150;2023-06-04T12:13:04;49.90;1.00
774;DHT22;370;48.810;9.150;2023-06-04T12:15:31;50.50;1.00
774;DHT22;370;48.810;9.150;2023-06-04T12:17:58;51.20;1.00
774;DHT22;370;48.810;9.150;2023-06-04T12:20:33;51.50;1.00
774;DHT22;370;48.810;9.150;2023-06-04T12:23:00;51.60;1.00
774;DHT22;370;48.810;9.150;2023-06-04T12:25:28;51.30;1.00
774;DHT22;370;48.810;9.150;2023-06-04T12:27:55;51.80;1.00
774;DHT22;370;48.810;9.150;2023-06-04T12:30:34;52.10;1.00
774;DHT22;370;48.810;9.150;2023-06-04T12:33:01;49.90;1.00
774;DHT22;370;48.810;9.150;2023-06-04T12:35:28;48.90;1.00
774;DHT22;370;48.810;9.150;2023-06-04T12:37:55;49.50;1.00
774;DHT22;370;48.810;9.150;2023-06-04T12:40:22;49.80;1.00
774;DHT22;370;48.810;9.150;2023-06-04T12:42:50;50.60;1.00
774;DHT22;370;48.810;9.150;2023-06-04T12:45:17;51.20;1.00
774;DHT22;370;48.810;9.150;2023-06-04T12:47:45;48.70;1.00
774;DHT22;370;48.810;9.150;2023-06-04T12:50:12;48.10;1.00
774;DHT22;370;48.810;9.150;2023-06-04T12:52:39;48.50;1.00
774;DHT22;370;48.810;9.150;2023-06-04T12:55:07;49.40;1.00
774;DHT22;370;48.810;9.150;2023-06-04T12:57:34;50.00;1.00
774;DHT22;370;48.810;9.150;2023-06-04T13:00:01;48.40;1.00
774;DHT22;370;48.810;9.150;2023-06-04T13:02:29;47.60;1.00
774;DHT22;370;48.810;9.150;2023-06-04T13:04:57;48.50;1.00
774;DHT22;370;48.810;9.150;2023-06-04T13:07:24;48.70;1.00
774;DHT22;370;48.810;9.150;2023-06-04T13:09:50;48.60;1.00
774;DHT22;370;48.810;9.150;2023-06-04T13:12:17;49.10;1.00
774;DHT22;370;48.810;9.150;2023-06-04T13:14:44;47.50;1.00
774;DHT22;370;48.810;9.150;2023-06-04T13:17:11;47.10;1.00
774;DHT22;370;48.810;9.150;2023-06-04T13:19:38;44.40;1.00
774;DHT22;370;48.810;9.150;2023-06-04T13:22:07;42.70;1.00
774;DHT22;370;48.810;9.150;2023-06-04T13:24:34;43.20;1.00
774;DHT22;370;48.810;9.150;2023-06-04T13:27:01;44.10;1.00
774;DHT22;370;48.810;9.150;2023-06-04T13:29:28;44.60;1.00
774;DHT22;370;48.810;9.150;2023-06-04T13:31:59;45.90;1.00
774;DHT22;370;48.810;9.150;2023-06-04T13:34:25;46.80;1.00
774;DHT22;370;48.810;9.150;2023-06-04T13:36:54;46.80;1.00
774;DHT22;370;48.810;9.150;2023-06-04T13:39:22;47.40;1.00
774;DHT22;370;48.810;9.150;2023-06-04T13:41:48;47.60;1.00
774;DHT22;370;48.810;9.150;2023-06-04T13:44:15;48.30;1.00
774;DHT22;370;48.810;9.150;2023-06-04T13:46:42;47.60;1.00
774;DHT22;370;48.810;9.150;2023-06-04T13:49:09;46.70;1.00
774;DHT22;370;48.810;9.150;2023-06-04T13:51:36;46.60;1.00
774;DHT22;370;48.810;9.150;2023-06-04T13:54:03;46.80;1.00
774;DHT22;370;48.810;9.150;2023-06-04T13:56:32;47.00;1.00
774;DHT22;370;48.810;9.150;2023-06-04T13:58:58;48.00;1.00
774;DHT22;370;48.810;9.150;2023-06-04T14:01:25;47.10;1.00
774;DHT22;370;48.810;9.150;2023-06-04T14:03:52;45.70;1.00
774;DHT22;370;48.810;9.150;2023-06-04T14:06:19;45.70;1.00
774;DHT22;370;48.810;9.150;2023-06-04T14:08:46;45.50;1.00
774;DHT22;370;48.810;9.150;2023-06-04T14:11:12;44.10;1.00
774;DHT22;370;48.810;9.150;2023-06-04T14:13:41;42.20;1.00
774;DHT22;370;48.810;9.150;2023-06-04T14:16:10;41.10;1.00
774;DHT22;370;48.810;9.150;2023-06-04T14:18:37;40.80;1.00
774;DHT22;370;48.810;9.150;2023-06-04T14:21:04;40.80;1.00
774;DHT22;370;48.810;9.150;2023-06-04T14:23:31;40.80;1.00
774;DHT22;370;48.810;9.150;2023-06-04T14:25:58;41.80;1.00
774;DHT22;370;48.810;9.150;2023-06-04T14:28:24;43.10;1.00
774;DHT22;370;48.810;9.150;2023-06-04T14:30:52;43.90;1.00
774;DHT22;370;48.810;9.150;2023-06-04T14:33:19;44.30;1.00
774;DHT22;370;48.810;9.150;2023-06-04T14:35:46;44.50;1.00
774;DHT22;370;48.810;9.150;2023-06-04T14:38:13;44.60;1.00
774;DHT22;370;48.810;9.150;2023-06-04T14:40:40;44.70;1.00
774;DHT22;370;48.810;9.150;2023-06-04T14:43:10;43.10;1.00
774;DHT22;370;48.810;9.150;2023-06-04T14:45:36;42.60;1.00
774;DHT22;370;48.810;9.150;2023-06-04T14:48:06;42.40;1.00
774;DHT22;370;48.810;9.150;2023-06-04T14:50:33;42.50;1.00
774;DHT22;370;48.810;9.150;2023-06-04T14:53:00;42.40;1.00
774;DHT22;370;48.810;9.150;2023-06-04T14:55:26;41.40;1.00
774;DHT22;370;48.810;9.150;2023-06-04T14:57:53;41.30;1.00
774;DHT22;370;48.810;9.150;2023-06-04T15:00:20;40.00;1.00
774;DHT22;370;48.810;9.150;2023-06-04T15:02:47;39.00;1.00
774;DHT22;370;48.810;9.150;2023-06-04T15:05:15;38.30;1.00
774;DHT22;370;48.810;9.150;2023-06-04T15:07:42;38.80;1.00
774;DHT22;370;48.810;9.150;2023-06-04T15:10:09;39.60;1.00
774;DHT22;370;48.810;9.150;2023-06-04T15:12:36;39.50;1.00
774;DHT22;370;48.810;9.150;2023-06-04T15:15:04;39.50;1.00
774;DHT22;370;48.810;9.150;2023-06-04T15:17:31;39.30;1.00
774;DHT22;370;48.810;9.150;2023-06-04T15:19:58;38.40;1.00
774;DHT22;370;48.810;9.150;2023-06-04T15:22:26;38.20;1.00
774;DHT22;370;48.810;9.150;2023-06-04T15:24:53;36.80;1.00
774;DHT22;370;48.810;9.150;2023-06-04T15:27:20;36.30;1.00
774;DHT22;370;48.810;9.150;2023-06-04T15:29:47;36.30;1.00
774;DHT22;370;48.810;9.150;2023-06-04T15:32:14;36.40;1.00
774;DHT22;370;48.810;9.150;2023-06-04T15:34:41;36.10;1.00
774;DHT22;370;48.810;9.150;2023-06-04T15:37:07;35.00;1.00
774;DHT22;370;48.810;9.150;2023-06-04T15:39:36;34.00;1.00
774;DHT22;370;48.810;9.150;2023-06-04T15:42:03;33.70;1.00
774;DHT22;370;48.810;9.150;2023-06-04T15:44:29;33.70;1.00
774;DHT22;370;48.810;9.150;2023-06-04T15:46:57;33.00;1.00
774;DHT22;370;48.810;9.150;2023-06-04T15:49:23;32.10;1.00
774;DHT22;370;48.810;9.150;2023-06-04T15:51:50;31.40;1.00
774;DHT22;370;48.810;9.150;2023-06-04T15:54:17;30.90;1.00
774;DHT22;370;48.810;9.150;2023-06-04T15:56:45;30.60;1.00
774;DHT22;370;48.810;9.150;2023-06-04T15:59:12;30.30;1.00
774;DHT22;370;48.810;9.150;2023-06-04T16:01:38;29.90;1.00
774;DHT22;370;48.810;9.150;2023-06-04T16:04:08;29.50;1.00
774;DHT22;370;48.810;9.150;2023-06-04T16:06:34;29.30;1.00
774;DHT22;370;48.810;9.150;2023-06-04T16:09:02;29.00;1.00
774;DHT22;370;48.810;9.150;2023-06-04T16:11:29;28.70;1.00
774;DHT22;370;48.810;9.150;2023-06-04T16:13:57;28.80;1.00
774;DHT22;370;48.810;9.150;2023-06-04T16:16:24;28.60;1.00
774;DHT22;370;48.810;9.150;2023-06-04T16:18:51;28.50;1.00
774;DHT22;370;48.810;9.150;2023-06-04T16:21:17;28.30;1.00
774;DHT22;370;48.810;9.150;2023-06-04T16:23:44;28.20;1.00
774;DHT22;370;48.810;9.150;2023-06-04T16:26:12;28.10;1.00
774;DHT22;370;48.810;9.150;2023-06-04T16:28:39;28.10;1.00
774;DHT22;370;48.810;9.150;2023-06-04T16:31:07;28.10;1.00
774;DHT22;370;48.810;9.150;2023-06-04T16:33:34;28.00;1.00
774;DHT22;370;48.810;9.150;2023-06-04T16:36:01;27.90;1.00
774;DHT22;370;48.810;9.150;2023-06-04T16:38:28;27.70;1.00
774;DHT22;370;48.810;9.150;2023-06-04T16:40:55;27.70;1.00
774;DHT22;370;48.810;9.150;2023-06-04T16:43:22;27.70;1.00
774;DHT22;370;48.810;9.150;2023-06-04T16:45:49;27.70;1.00
774;DHT22;370;48.810;9.150;2023-06-04T16:48:17;27.60;1.00
774;DHT22;370;48.810;9.150;2023-06-04T16:50:44;27.50;1.00
774;DHT22;370;48.810;9.150;2023-06-04T16:53:10;27.40;1.00